Latest Weather Observations for Wyndham Airport

IDD60801

Issued at 8:11 pm CST Saturday 23 February 2019 (issued every 10 minutes, with the page automatically refreshed every 10 minutes)

About weather observations | Map of weather stations | Latest weather observations for NT | Other Formats
Station Details ID: 001006 Name: WYNDHAM AERO Lat: -15.51 Lon: 128.15 Height: 3.8 m
Data from the previous 72 hours. | See also: Recent months at Wyndham Airport
Date/Time
CST
Temp
°C
App
Temp
°C
Dew
Point
°C
Rel
Hum
%
Delta-T
°C
Wind Press
QNH
hPa
Press
MSL
hPa
Rain since
9am
mm
Dir  Spd
km/h
Gust
km/h
Spd
kts
Gust
kts
23/08:00pm 34.4 37.2 25.2 58 6.6 N 20 26 11 14 1005.1 1005.1 0.0
23/07:30pm 35.5 37.4 23.5 50 8.4 N 19 28 10 15 1004.5 1004.5 0.0
23/07:00pm 37.7 38.9 19.1 33 12.3 NNW 11 13 6 7 1004.0 1004.0 0.0
23/06:30pm 39.3 40.6 18.5 29 13.8 WNW 9 11 5 6 1003.8 1003.8 0.0
23/06:00pm 40.5 41.4 16.0 24 15.7 SSE 6 9 3 5 1003.7 1003.7 0.0
23/05:30pm 40.5 41.0 16.6 24 15.5 WSW 9 11 5 6 1003.8 1003.8 0.0
23/05:00pm 40.6 41.0 17.3 25 15.2 WNW 11 13 6 7 1004.0 1004.0 0.0
23/04:30pm 40.4 41.4 17.8 27 14.9 WSW 9 17 5 9 1004.4 1004.4 0.0
23/04:00pm 40.1 40.9 18.1 27 14.5 SSW 11 15 6 8 1004.5 1004.5 0.0
23/03:30pm 40.2 40.4 17.6 26 14.9 W 13 19 7 10 1004.8 1004.8 0.0
23/03:00pm 39.9 40.6 17.9 27 14.5 SW 11 15 6 8 1005.0 1005.0 0.0
23/02:30pm 39.7 40.6 18.3 28 14.2 W 11 17 6 9 1005.5 1005.5 0.0
23/02:00pm 38.8 39.2 18.1 29 13.6 SW 13 17 7 9 1005.9 1005.9 0.0
23/01:30pm 38.5 39.8 19.4 33 12.8 SW 11 17 6 9 1006.3 1006.3 0.0
23/01:00pm 38.2 38.8 17.6 30 13.4 WSW 11 17 6 9 1006.8 1006.8 0.0
23/12:30pm 37.2 39.1 20.5 37 11.3 W 11 15 6 8 1007.4 1007.4 0.0
23/12:00pm 36.3 37.6 20.1 38 10.9 WSW 13 17 7 9 1007.9 1007.9 0.0
23/11:30am 35.5 37.8 20.6 41 10.0 SW 9 15 5 8 1008.3 1008.3 0.0
23/11:00am 34.9 36.6 20.1 42 9.9 SW 11 17 6 9 1008.5 1008.5 0.0
23/10:30am 34.6 36.6 21.6 46 8.9 WSW 13 17 7 9 1008.5 1008.5 0.0
23/10:00am 33.8 35.0 19.8 43 9.3 WSW 13 15 7 8 1008.5 1008.5 0.0
23/09:30am 32.9 35.5 22.0 52 7.4 WSW 11 13 6 7 1008.5 1008.5 0.0
23/09:00am 31.6 34.5 23.2 61 5.8 WSW 13 15 7 8 1008.6 1008.6 0.0
23/08:30am 30.6 36.3 25.9 76 3.3 W 7 9 4 5 1008.3 1008.3 0.0
23/08:00am 29.4 35.7 26.8 86 1.9 SSW 7 11 4 6 1008.3 1008.3 0.0
23/07:30am 28.7 34.8 25.7 84 2.1 ENE 4 7 2 4 1008.2 1008.2 0.0
23/07:00am 27.8 34.6 25.6 88 1.5 CALM 0 0 0 0 1007.9 1007.9 0.0
23/06:30am 27.4 33.6 25.2 88 1.5 ENE 2 6 1 3 1007.6 1007.6 0.0
23/06:00am 27.9 33.8 25.9 89 1.4 E 6 9 3 5 1007.3 1007.3 0.0
23/05:30am 28.5 34.1 26.3 88 1.6 E 9 13 5 7 1007.2 1007.2 0.0
23/05:00am 27.9 32.8 25.9 89 1.4 ESE 11 13 6 7 1007.1 1007.1 0.0
23/04:30am 28.0 33.3 25.8 88 1.6 ENE 9 11 5 6 1006.7 1006.7 0.0
23/04:00am 28.5 33.6 26.1 87 1.7 E 11 13 6 7 1006.7 1006.7 0.0
23/03:30am 28.3 33.6 25.9 87 1.7 E 9 11 5 6 1006.7 1006.7 0.0
23/03:00am 29.2 34.5 26.4 85 2.0 E 11 13 6 7 1006.7 1006.7 0.0
23/02:30am 29.4 34.2 26.2 83 2.3 E 13 15 7 8 1006.8 1006.8 0.0
23/02:00am 28.8 33.2 25.0 80 2.7 E 11 13 6 7 1006.9 1006.9 0.0
23/01:30am 29.5 33.7 24.8 76 3.3 E 11 13 6 7 1007.0 1007.0 0.0
23/01:00am 29.6 34.1 24.0 72 3.9 NNW 7 9 4 5 1007.2 1007.2 0.0
23/12:30am 29.5 34.4 24.4 74 3.6 NNW 6 9 3 5 1007.4 1007.4 0.0
23/12:00am 30.7 37.0 24.8 71 4.1 CALM 0 0 0 0 1007.6 1007.6 0.0
 
Date/Time
CST
Temp
°C
App
Temp
°C
Dew
Point
°C
Rel
Hum
%
Delta-T
°C
Wind Press
QNH
hPa
Press
MSL
hPa
Rain since
9am
mm
Dir  Spd
km/h
Gust
km/h
Spd
kts
Gust
kts
22/11:30pm 30.7 36.8 24.4 69 4.4 CALM 0 0 0 0 1007.7 1007.7 0.0
22/11:00pm 31.1 36.2 22.7 61 5.7 CALM 0 0 0 0 1007.7 1007.7 0.0
22/10:30pm 31.8 36.4 23.1 60 6.0 NNW 4 7 2 4 1007.4 1007.4 0.0
22/10:00pm 31.2 34.6 23.3 63 5.4 NNW 11 11 6 6 1007.4 1007.4 0.0
22/09:30pm 32.6 38.2 23.5 58 6.3 CALM 0 0 0 0 1007.4 1007.4 0.0
22/09:00pm 33.1 37.8 24.0 59 6.4 SW 6 9 3 5 1007.2 1007.2 0.0
22/08:30pm 33.0 36.2 22.4 53 7.3 NNW 9 9 5 5 1006.7 1006.7 0.0
22/08:00pm 34.1 37.6 22.2 50 8.1 N 7 9 4 5 1006.3 1006.3 0.0
22/07:30pm 34.5 36.9 21.5 46 8.8 N 11 15 6 8 1005.7 1005.7 0.0
22/07:00pm 36.0 38.4 22.2 45 9.5 NNW 13 15 7 8 1005.4 1005.4 0.0
22/06:30pm 37.2 39.1 21.3 39 10.9 NNW 13 17 7 9 1005.4 1005.4 0.0
22/06:00pm 39.4 40.4 16.9 26 14.6 ESE 7 15 4 8 1005.3 1005.3 0.0
22/05:30pm 39.5 40.4 17.6 27 14.4 ESE 9 15 5 8 1005.3 1005.3 0.0
22/05:00pm 39.5 41.2 18.1 28 14.1 SSW 6 15 3 8 1005.5 1005.5 0.0
22/04:30pm 39.5 41.0 18.1 28 14.1 S 7 13 4 7 1005.8 1005.8 0.0
22/04:00pm 39.2 40.3 17.9 28 14.0 SE 9 13 5 7 1006.1 1006.1 0.0
22/03:30pm 38.8 40.6 19.6 32 12.9 WSW 9 17 5 9 1006.6 1006.6 0.0
22/03:00pm 38.1 40.1 20.0 35 12.2 SW 9 15 5 8 1007.0 1007.0 0.0
22/02:30pm 38.0 40.3 19.4 33 12.4 SW 6 9 3 5 1007.5 1007.5 0.0
22/02:00pm 36.9 39.1 21.1 40 10.7 W 11 19 6 10 1008.0 1008.0 0.0
22/01:30pm 35.9 37.8 20.6 41 10.3 SW 11 15 6 8 1008.6 1008.6 0.0
22/01:00pm 35.4 37.3 20.5 41 10.0 W 11 17 6 9 1009.4 1009.4 0.0
22/12:30pm 35.0 36.5 20.5 42 9.7 W 13 17 7 9 1009.9 1009.9 0.0
22/12:00pm 34.0 36.3 20.7 45 8.9 WSW 9 17 5 9 1010.9 1010.9 0.0
22/11:30am 33.2 36.1 20.7 47 8.4 WNW 6 11 3 6 1011.4 1011.4 0.0
22/11:00am 32.4 35.2 21.6 53 7.3 SSE 9 11 5 6 1011.6 1011.6 0.0
22/10:30am 31.4 34.9 22.1 57 6.3 ESE 7 11 4 6 1011.4 1011.4 0.0
22/10:00am 29.9 33.6 23.3 67 4.5 ESE 9 11 5 6 1011.3 1011.3 0.0
22/09:30am 29.4 32.4 23.4 70 4.1 E 13 15 7 8 1011.1 1011.1 0.0
22/09:00am 29.4 31.9 23.1 69 4.3 ESE 15 19 8 10 1010.9 1010.9 0.0
22/08:30am 28.7 30.5 23.6 74 3.5 ESE 20 24 11 13 1010.6 1010.6 0.0
22/08:00am 28.7 29.8 22.0 67 4.5 ESE 19 22 10 12 1009.6 1009.6 0.0
22/07:30am 28.2 31.2 22.7 72 3.7 ESE 11 19 6 10 1008.9 1008.9 0.0
22/07:00am 27.7 31.3 22.4 73 3.6 NW 7 9 4 5 1008.3 1008.3 0.0
22/06:30am 27.7 32.2 22.2 72 3.7 NW 2 11 1 6 1008.0 1008.0 0.0
22/06:00am 27.9 31.4 22.8 74 3.5 NW 9 9 5 5 1008.2 1008.2 0.0
22/05:30am 28.4 32.7 21.2 65 4.8 CALM 0 6 0 3 1007.8 1007.8 0.0
22/05:00am 28.4 31.7 21.4 66 4.7 NW 6 7 3 4 1007.8 1007.8 0.0
22/04:30am 28.1 31.0 21.1 65 4.7 NW 7 9 4 5 1007.6 1007.6 0.0
22/04:00am 28.2 30.6 22.2 70 4.0 NW 13 15 7 8 1007.8 1007.8 0.0
22/03:30am 28.4 30.6 22.6 71 3.9 NW 15 17 8 9 1008.0 1008.0 0.0
22/03:00am 28.1 30.9 22.3 70 3.9 NNW 11 13 6 7 1008.4 1008.4 0.0
22/02:30am 28.3 31.6 22.5 71 3.9 NW 9 13 5 7 1009.1 1009.1 0.0
22/02:00am 29.4 32.8 23.4 70 4.1 SW 11 13 6 7 1009.5 1009.5 0.0
22/01:30am 29.2 33.8 23.2 70 4.1 E 4 9 2 5 1009.5 1009.5 0.0
22/01:00am 29.7 34.4 21.9 63 5.3 CALM 0 0 0 0 1009.7 1009.7 0.0
22/12:30am 29.7 33.4 22.2 64 5.1 E 6 7 3 4 1009.7 1009.7 0.0
22/12:00am 30.3 33.3 20.8 56 6.3 E 6 7 3 4 1010.1 1010.1 0.0
 
Date/Time
CST
Temp
°C
App
Temp
°C
Dew
Point
°C
Rel
Hum
%
Delta-T
°C
Wind Press
QNH
hPa
Press
MSL
hPa
Rain since
9am
mm
Dir  Spd
km/h
Gust
km/h
Spd
kts
Gust
kts
21/11:30pm 30.4 34.2 20.9 57 6.3 E 2 7 1 4 1010.3 1010.3 0.0
21/11:00pm 30.9 32.5 20.8 55 6.7 ESE 13 20 7 11 1010.1 1010.1 0.0
21/10:30pm 31.6 31.9 20.8 52 7.2 ESE 20 26 11 14 1009.9 1009.9 0.0
21/10:00pm 31.2 35.1 23.6 64 5.3 E 9 13 5 7 1009.4 1009.4 0.0
21/09:30pm 32.4 33.5 23.1 58 6.4 E 22 32 12 17 1008.8 1008.8 0.0
21/09:00pm 32.7 35.9 23.1 57 6.6 E 11 20 6 11 1008.6 1008.6 0.0
21/08:30pm 33.1 35.8 23.4 56 6.7 N 15 20 8 11 1007.8 1007.8 0.0
21/08:00pm 33.6 36.8 23.0 54 7.3 N 11 17 6 9 1007.5 1007.5 0.0
21/07:30pm 34.6 37.4 22.3 48 8.5 N 11 15 6 8 1006.9 1006.9 0.0
21/07:00pm 35.9 38.0 20.2 40 10.5 N 9 11 5 6 1006.5 1006.5 0.0
21/06:30pm 37.2 38.1 19.2 35 12.0 N 13 15 7 8 1005.8 1005.8 0.0
21/06:00pm 37.8 38.7 19.2 33 12.4 N 13 17 7 9 1005.6 1005.6 0.0
21/05:30pm 39.1 41.1 19.9 33 13.0 WNW 9 13 5 7 1005.7 1005.7 0.0
21/05:00pm 39.0 41.2 19.3 31 13.2 SW 6 11 3 6 1006.2 1006.2 0.0
21/04:30pm 39.0 40.7 19.3 31 13.2 W 9 15 5 8 1006.6 1006.6 0.0
21/04:00pm 38.6 40.7 19.4 32 12.8 WSW 7 11 4 6 1006.9 1006.9 0.0
21/03:30pm 38.6 40.9 19.9 33 12.6 WNW 7 13 4 7 1007.4 1007.4 0.0
21/03:00pm 38.2 40.2 20.0 34 12.2 WSW 9 17 5 9 1007.8 1007.8 0.0
21/02:30pm 38.0 39.5 21.2 37 11.5 NW 15 20 8 11 1008.2 1008.2 0.0
21/02:00pm 37.2 38.9 20.9 38 11.1 WNW 13 20 7 11 1008.8 1008.8 0.0
21/01:30pm 36.6 38.6 20.0 38 11.1 WSW 9 15 5 8 1009.4 1009.4 0.0
21/01:00pm 36.9 39.1 21.1 40 10.7 W 11 20 6 11 1010.0 1010.0 0.0
21/12:30pm 35.5 37.8 20.6 41 10.0 WNW 9 13 5 7 1010.5 1010.5 0.0
21/12:00pm 35.4 38.1 21.3 44 9.6 W 9 15 5 8 1011.0 1011.0 0.0
21/11:30am 34.1 36.3 20.5 45 9.1 WSW 9 15 5 8 1011.3 1011.3 0.0
21/11:00am 33.0 35.2 20.5 47 8.3 SW 9 13 5 7 1011.6 1011.6 0.0
21/10:30am 32.7 34.9 21.2 50 7.7 SSW 11 15 6 8 1011.9 1011.9 0.0
21/10:00am 32.3 34.0 20.9 51 7.6 SW 13 19 7 10 1011.6 1011.6 0.0
21/09:30am 31.0 34.5 21.8 58 6.2 SSW 6 9 3 5 1011.5 1011.5 0.0
21/09:00am 30.3 33.4 21.4 59 6.0 W 7 9 4 5 1011.4 1011.4 0.0
21/08:30am 29.5 32.6 21.4 61 5.4 WSW 7 9 4 5 1011.1 1011.1 0.0
21/08:00am 28.0 32.8 22.2 70 3.9 CALM 0 0 0 0 1010.7 1010.7 0.0
21/07:30am 27.3 32.4 22.7 76 3.1 CALM 0 0 0 0 1010.7 1010.7 0.0
21/07:00am 27.0 30.7 22.2 75 3.2 S 6 7 3 4 1010.5 1010.5 0.0
21/06:30am 26.6 28.9 21.4 73 3.5 NNW 11 13 6 7 1010.0 1010.0 0.0
21/06:00am 26.8 29.1 21.3 72 3.7 NNW 11 13 6 7 1009.7 1009.7 0.0
21/05:30am 26.9 29.5 21.9 74 3.4 NNW 11 15 6 8 1009.6 1009.6 0.0
21/05:00am 27.1 29.9 22.3 75 3.2 NW 11 11 6 6 1009.7 1009.7 0.0
21/04:30am 27.5 31.1 23.1 77 3.0 WNW 9 9 5 5 1009.7 1009.7 0.0
21/04:00am 28.5 31.3 23.0 72 3.8 WNW 13 17 7 9 1009.6 1009.6 0.0
21/03:30am 28.1 30.5 22.3 70 3.9 NW 13 15 7 8 1009.7 1009.7 0.0
21/03:00am 28.0 30.6 22.7 73 3.6 NW 13 15 7 8 1009.9 1009.9 0.0
21/02:30am 28.2 30.5 22.0 69 4.2 NW 13 15 7 8 1009.9 1009.9 0.0
21/02:00am 28.3 30.1 21.8 68 4.4 NNW 15 17 8 9 1010.0 1010.0 0.0
21/01:30am 28.1 30.7 21.9 69 4.2 NNW 11 13 6 7 1010.2 1010.2 0.0
21/01:00am 28.7 31.7 22.0 67 4.5 NW 9 13 5 7 1010.3 1010.3 0.0
21/12:30am 29.8 31.8 22.3 64 5.1 WNW 15 17 8 9 1010.5 1010.5 0.0
21/12:00am 30.0 32.4 22.2 63 5.3 W 13 17 7 9 1010.6 1010.6 0.0
 
Date/Time
CST
Temp
°C
App
Temp
°C
Dew
Point
°C
Rel
Hum
%
Delta-T
°C
Wind Press
QNH
hPa
Press
MSL
hPa
Rain since
9am
mm
Dir  Spd
km/h
Gust
km/h
Spd
kts
Gust
kts
20/11:30pm 30.4 32.7 22.0 60 5.7 W 13 17 7 9 1010.7 1010.7 0.0
20/11:00pm 30.2 32.6 23.6 67 4.6 WSW 17 19 9 10 1010.3 1010.3 0.0
20/10:30pm 30.2 33.5 23.9 69 4.4 WSW 13 15 7 8 1009.8 1009.8 0.0
20/10:00pm 30.6 33.3 23.5 66 4.9 W 15 17 8 9 1009.7 1009.7 0.0

Other formats

Comma delimited format used in spreadsheet applications
http://www.bom.gov.au/fwo/IDD60801/IDD60801.95214.axf

JavaScript Object Notation format (JSON) in row-major order
http://www.bom.gov.au/fwo/IDD60801/IDD60801.95214.json

Data quality

Most of these data are generated automatically and are frequently updated. Quality checks on data are not normally performed. It is possible for incorrect values to appear. Refer to information at About Latest Weather Observations and please check the disclaimer before using these data.